createdAt,value
2023-02-06T00:03:42.189Z,100640.00
2023-02-06T00:08:44.967Z,100621.59
2023-02-06T00:13:47.844Z,100621.59
2023-02-06T00:18:53.190Z,100630.47
2023-02-06T00:23:57.897Z,100634.91
2023-02-06T00:29:00.736Z,100625.50
2023-02-06T00:34:05.108Z,100629.09
2023-02-06T00:39:07.844Z,100636.22
2023-02-06T00:44:11.125Z,100635.38
2023-02-06T00:49:15.370Z,100637.25
2023-02-06T00:54:20.796Z,100632.91
2023-02-06T00:59:23.585Z,100638.44
2023-02-06T01:04:27.811Z,100644.56
2023-02-06T01:09:30.559Z,100650.91
2023-02-06T01:14:33.304Z,100643.88
2023-02-06T01:19:38.296Z,100660.72
2023-02-06T01:24:41.348Z,100660.72
2023-02-06T01:29:45.304Z,100643.28
2023-02-06T01:34:49.548Z,100641.69
2023-02-06T01:39:52.321Z,100644.41
2023-02-06T01:45:30.735Z,100643.59
2023-02-06T01:50:38.845Z,100643.63
2023-02-06T01:55:44.933Z,100639.25
2023-02-06T02:00:49.137Z,100632.22
2023-02-06T02:05:58.447Z,100626.19
2023-02-06T02:11:05.469Z,100621.91
2023-02-06T02:16:16.148Z,100623.81
2023-02-06T02:21:50.505Z,100616.94
2023-02-06T02:27:19.395Z,100630.16
2023-02-06T02:32:38.864Z,100621.50
2023-02-06T02:37:53.675Z,100625.13
2023-02-06T02:43:06.117Z,100621.72
2023-02-06T02:48:13.825Z,100627.06
2023-02-06T02:53:18.278Z,100629.78
2023-02-06T02:58:26.706Z,100629.88
2023-02-06T03:03:32.792Z,100617.81
2023-02-06T03:08:49.201Z,100623.22
2023-02-06T03:13:56.682Z,100630.41
2023-02-06T03:19:06.410Z,100626.25
2023-02-06T03:24:15.424Z,100633.41
2023-02-06T03:29:19.910Z,100638.88
2023-02-06T03:34:26.705Z,100628.56
2023-02-06T03:39:31.166Z,100628.69
2023-02-06T03:44:37.410Z,100641.16
2023-02-06T03:49:42.386Z,100631.59
2023-02-06T03:54:52.696Z,100647.59
2023-02-06T03:59:55.694Z,100660.88
2023-02-06T04:04:58.771Z,100651.38
2023-02-06T04:10:03.152Z,100659.41
2023-02-06T04:15:06.742Z,100663.00
2023-02-06T04:20:11.224Z,100668.34
2023-02-06T04:25:15.841Z,100665.78
2023-02-06T04:30:18.945Z,100668.59
2023-02-06T04:35:22.407Z,100680.13
2023-02-06T04:40:26.684Z,100676.72
2023-02-06T04:45:29.379Z,100676.84
2023-02-06T04:50:34.227Z,100680.50
2023-02-06T04:55:38.515Z,100676.19
2023-02-06T05:00:41.358Z,100678.03
2023-02-06T05:05:44.439Z,100684.19
2023-02-06T05:10:48.581Z,100674.66
2023-02-06T05:15:51.557Z,100673.03
2023-02-06T05:20:54.361Z,100683.59
2023-02-06T05:25:58.472Z,100683.69
2023-02-06T05:31:01.770Z,100670.66
2023-02-06T05:36:06.426Z,100675.09
2023-02-06T05:41:10.717Z,100685.72
2023-02-06T05:46:13.816Z,100676.97
2023-02-06T05:51:16.893Z,100680.50
2023-02-06T05:56:21.101Z,100659.50
2023-02-06T06:01:23.848Z,100664.78
2023-02-06T06:06:26.612Z,100665.75
2023-02-06T06:11:31.891Z,100662.34
2023-02-06T06:16:35.060Z,100658.97
2023-02-06T06:21:37.933Z,100653.78
2023-02-06T06:26:42.204Z,100662.63
2023-02-06T06:31:46.094Z,100663.59
2023-02-06T06:36:48.906Z,100666.31
2023-02-06T06:41:53.405Z,100670.75
2023-02-06T06:46:56.127Z,100681.31
2023-02-06T06:51:58.907Z,100675.22
2023-02-06T06:57:03.525Z,100671.78
2023-02-06T07:02:06.421Z,100675.41
2023-02-06T07:07:09.597Z,100672.81
2023-02-06T07:12:14.221Z,100677.19
2023-02-06T07:17:17.056Z,100684.19
2023-02-06T07:22:20.339Z,100681.59
2023-02-06T07:27:24.814Z,100674.63
2023-02-06T07:32:27.701Z,100681.63
2023-02-06T07:37:30.578Z,100683.41
2023-02-06T07:42:35.084Z,100685.13
2023-02-06T07:47:49.719Z,100679.81
2023-02-06T07:52:52.482Z,100692.09
2023-02-06T07:57:57.007Z,100698.16
2023-02-06T08:03:00.900Z,100700.69
2023-02-06T08:08:04.016Z,100698.66
2023-02-06T08:13:08.505Z,100687.72
2023-02-06T08:18:12.080Z,100678.53
2023-02-06T08:23:14.856Z,100683.44
2023-02-06T08:28:18.985Z,100687.56
2023-02-06T08:33:21.970Z,100677.72
2023-02-06T08:38:24.723Z,100678.72
2023-02-06T08:43:28.914Z,100680.91
2023-02-06T08:48:31.819Z,100677.28
2023-02-06T08:53:34.924Z,100687.53
2023-02-06T08:58:40.121Z,100687.16
2023-02-06T09:03:43.556Z,100686.94
2023-02-06T09:08:46.598Z,100688.47
2023-02-06T09:13:52.040Z,100682.97
2023-02-06T09:18:56.045Z,100685.47
2023-02-06T09:24:00.553Z,100685.16
2023-02-06T09:29:07.699Z,100695.31
2023-02-06T09:34:12.998Z,100679.22
2023-02-06T09:39:15.739Z,100676.50
2023-02-06T09:44:23.272Z,100660.88
2023-02-06T09:49:30.966Z,100655.69
2023-02-06T09:54:45.431Z,100659.50
2023-02-06T09:59:56.372Z,100649.94
2023-02-06T10:05:08.926Z,100644.59
2023-02-06T10:10:16.803Z,100635.72
2023-02-06T10:15:30.372Z,100625.47
2023-02-06T10:20:36.281Z,100627.00
2023-02-06T10:25:43.111Z,100625.31
2023-02-06T10:31:11.199Z,100610.28
2023-02-06T10:36:28.533Z,100602.34
2023-02-06T10:41:40.592Z,100596.56
2023-02-06T10:46:48.279Z,100595.38
2023-02-06T10:51:55.145Z,100585.47
2023-02-06T10:56:59.867Z,100580.00
2023-02-06T11:02:19.487Z,100564.63
2023-02-06T11:07:27.242Z,100564.22
2023-02-06T11:12:35.078Z,100562.63
2023-02-06T11:17:39.356Z,100551.81
2023-02-06T11:22:52.278Z,100550.84
2023-02-06T11:27:56.371Z,100544.75
2023-02-06T11:33:05.174Z,100530.88
2023-02-06T11:38:16.321Z,100525.38
2023-02-06T11:43:22.071Z,100533.41
2023-02-06T11:48:40.673Z,100533.38
2023-02-06T11:53:57.254Z,100536.41
2023-02-06T11:59:07.115Z,100521.28
2023-02-06T12:04:23.669Z,100513.28
2023-02-06T12:09:27.922Z,100503.84
2023-02-06T12:14:36.205Z,100489.34
2023-02-06T12:19:49.889Z,100495.56
2023-02-06T12:24:55.669Z,100501.78
2023-02-06T12:30:03.272Z,100486.38
2023-02-06T12:35:16.519Z,100470.19
2023-02-06T12:40:30.180Z,100466.63
2023-02-06T12:45:42.603Z,100468.44
2023-02-06T12:50:52.089Z,100469.03
2023-02-06T12:56:01.645Z,100471.53
2023-02-06T13:01:30.645Z,100468.63
2023-02-06T13:06:47.375Z,100475.75
2023-02-06T13:11:50.293Z,100471.28
2023-02-06T13:16:56.814Z,100470.88
2023-02-06T13:22:45.792Z,100451.56
2023-02-06T13:27:50.032Z,100446.25
2023-02-06T13:32:53.396Z,100459.97
2023-02-06T13:38:26.180Z,100458.25
2023-02-06T13:43:31.758Z,100456.41
2023-02-06T13:48:51.390Z,100462.38
2023-02-06T13:54:17.056Z,100467.88
2023-02-06T13:59:25.744Z,100466.16
2023-02-06T14:04:33.412Z,100458.41
2023-02-06T14:10:13.849Z,100462.69
2023-02-06T14:15:28.337Z,100459.97
2023-02-06T14:20:42.360Z,100457.63
2023-02-06T14:26:07.407Z,100444.88
2023-02-06T14:31:22.134Z,100450.28
2023-02-06T14:36:38.568Z,100451.50
2023-02-06T14:41:41.495Z,100447.72
2023-02-06T14:46:46.572Z,100444.06
2023-02-06T14:51:51.793Z,100440.66
2023-02-06T14:56:57.797Z,100446.53
2023-02-06T15:02:14.026Z,100452.47
2023-02-06T15:07:23.924Z,100438.81
2023-02-06T15:12:29.050Z,100436.16
2023-02-06T15:17:34.347Z,100429.84
2023-02-06T15:22:37.633Z,100427.75
2023-02-06T15:27:40.527Z,100436.88
2023-02-06T15:32:49.547Z,100433.19
2023-02-06T15:37:53.801Z,100429.00
2023-02-06T15:42:57.198Z,100424.75
2023-02-06T15:48:09.912Z,100428.25
2023-02-06T15:53:20.626Z,100415.47
2023-02-06T15:58:25.075Z,100419.34
2023-02-06T16:03:31.358Z,100409.13
2023-02-06T16:08:38.055Z,100415.59
2023-02-06T16:13:41.052Z,100414.38
2023-02-06T16:18:46.534Z,100423.56
2023-02-06T16:23:51.621Z,100415.28
2023-02-06T16:28:58.611Z,100429.78
2023-02-06T16:34:04.154Z,100418.81
2023-02-06T16:39:07.311Z,100424.38
2023-02-06T16:44:15.591Z,100435.34
2023-02-06T16:49:22.041Z,100445.31
2023-02-06T16:54:28.278Z,100445.72
2023-02-06T16:59:31.138Z,100454.94
2023-02-06T17:04:35.379Z,100454.31
2023-02-06T17:09:38.164Z,100464.22
2023-02-06T17:14:42.624Z,100450.25
2023-02-06T17:19:47.531Z,100468.03
2023-02-06T17:24:50.494Z,100471.69
2023-02-06T17:29:53.766Z,100472.75
2023-02-06T17:35:01.498Z,100465.84
2023-02-06T17:40:05.409Z,100466.91
2023-02-06T17:45:09.143Z,100467.09
2023-02-06T17:50:14.913Z,100461.16
2023-02-06T17:55:17.754Z,100468.31
2023-02-06T18:00:23.228Z,100456.25
2023-02-06T18:05:28.008Z,100443.28
2023-02-06T18:10:30.792Z,100455.75
2023-02-06T18:15:33.634Z,100455.03
2023-02-06T18:20:38.016Z,100462.31
2023-02-06T18:25:43.422Z,100471.19
2023-02-06T18:30:46.796Z,100484.56
2023-02-06T18:35:51.544Z,100478.63
2023-02-06T18:40:54.577Z,100472.63
2023-02-06T18:45:57.554Z,100464.03
2023-02-06T18:51:01.873Z,100472.00
2023-02-06T18:56:04.645Z,100476.50
2023-02-06T19:01:13.051Z,100491.56
2023-02-06T19:06:19.104Z,100478.44
2023-02-06T19:11:21.845Z,100483.00
2023-02-06T19:16:26.398Z,100468.16
2023-02-06T19:21:30.789Z,100477.09
2023-02-06T19:26:33.761Z,100484.09
2023-02-06T19:31:39.393Z,100487.66
2023-02-06T19:36:43.587Z,100497.47
2023-02-06T19:41:46.572Z,100504.47
2023-02-06T19:46:49.500Z,100512.47
2023-02-06T19:51:53.824Z,100523.16
2023-02-06T19:56:56.765Z,100516.09
2023-02-06T20:02:01.711Z,100516.19
2023-02-06T20:07:06.123Z,100508.41
2023-02-06T20:12:10.171Z,100507.63
2023-02-06T20:17:13.546Z,100512.09
2023-02-06T20:22:17.804Z,100520.88
2023-02-06T20:27:20.666Z,100519.22
2023-02-06T20:32:24.330Z,100519.38
2023-02-06T20:37:28.688Z,100521.16
2023-02-06T20:42:32.016Z,100519.53
2023-02-06T20:47:35.142Z,100531.88
2023-02-06T20:52:39.380Z,100549.47
2023-02-06T20:57:42.255Z,100559.25
2023-02-06T21:02:45.111Z,100554.06
2023-02-06T21:07:49.308Z,100558.41
2023-02-06T21:12:52.182Z,100567.22
2023-02-06T21:17:55.113Z,100560.25
2023-02-06T21:22:59.663Z,100554.13
2023-02-06T21:28:03.600Z,100560.22
2023-02-06T21:33:07.100Z,100554.94
2023-02-06T21:38:11.517Z,100543.56
2023-02-06T21:43:15.768Z,100548.94
2023-02-06T21:48:18.480Z,100536.72
2023-02-06T21:53:22.859Z,100541.13
2023-02-06T21:58:25.592Z,100535.03
2023-02-06T22:03:28.315Z,100526.22
2023-02-06T22:08:32.775Z,100535.03
2023-02-06T22:13:35.471Z,100526.22
2023-02-06T22:18:38.516Z,100544.50
2023-02-06T22:23:43.697Z,100536.72
2023-02-06T22:28:47.359Z,100534.03
2023-02-06T22:33:50.885Z,100533.25
2023-02-06T22:38:57.376Z,100544.69
2023-02-06T22:44:00.262Z,100548.09
2023-02-06T22:49:03.404Z,100552.47
2023-02-06T22:54:09.370Z,100552.66
2023-02-06T22:59:14.531Z,100581.47
2023-02-06T23:04:18.750Z,100579.59
2023-02-06T23:09:24.322Z,100584.91
2023-02-06T23:14:28.792Z,100571.69
2023-02-06T23:19:31.740Z,100574.31
2023-02-06T23:24:35.831Z,100568.16
2023-02-06T23:29:38.654Z,100568.22
2023-02-06T23:34:41.461Z,100571.63
2023-02-06T23:39:45.598Z,100562.97
2023-02-06T23:44:48.338Z,100576.91
2023-02-06T23:49:51.409Z,100583.88
2023-02-06T23:54:55.664Z,100580.38
2023-02-06T23:59:58.533Z,100575.16
